LFOPLFMV

Guest
Details From LFOP - Rouen Vallee de la Seine
To LFMV - Caumont
Flight Number -
Tags decoded
Created
Modified
Stats Distance 363 nm / 672 km
Max Altitude 0 ft / 0 m
Waypoints 2
Social Downloads 0
Likes 0
Share VATSIM

Download

Looking for another format? Having issues loading an existing format? Contact us
Advertisement - Login to hide

Notes

Requested: LFOP LFMV

Route

LFOP LFMV

ID Type Via Altitude Latitude Longitude Leg Dist Tot Dist Heading (true) Name
O LFOP APT - 0 ft / 0 m 49.38521˚ 1.17619˚ - 0 nm - Rouen Vallee de la Seine
O LFMV APT - 0 ft / 0 m 43.90860˚ 4.90180˚ 362 nm 362 nm 154° / 156° Caumont

Altitude Profile

Advertisement - Login to hide

Weather


0- 5 10 15 20 25 30 35+ Temperature / ° C

Clouds and Precipitation
Forecast for 2017-12-12 00:00 UTC. Updated 13 minutes ago

Ground ~20,000 ft ~40,000 ft Winds

LFOP

Details ICAO LFOP (URO)
Name Rouen Vallee de la Seine
Region France
Timezone Europe/Paris (UTC+1.0)
Stats Elevation 512 ft / 156 m (AMSL)
Location 49.385211° 1.176192°
Runways 1
Magnetic Variation 0.183° E

METAR

LFOP 112330Z AUTO 29008KT 9999 BKN030 BKN037 BKN046 02/01 Q0998

Decode

TAF

TAF LFOP 112126Z 1121/1218 CNL

Decode

Departure Runways

ID Width Length Bearing (true) Bearing (mag) Surface Threshold Offset Overrun Length
04 148 ft / 45 m 5,577 ft / 1,700 m 41.28° 41.10° Asphalt 0 ft / 0 m 0 ft / 0 m
22 148 ft / 45 m 5,577 ft / 1,700 m 221.29° 221.11° Asphalt 0 ft / 0 m 0 ft / 0 m

LFMV

Details ICAO LFMV (AVN)
Name Caumont
Region France
Timezone Europe/Paris (UTC+1.0)
Stats Elevation 124 ft / 38 m (AMSL)
Location 43.908602° 4.901796°
Runways 3
Magnetic Variation 1.472° E

METAR

LFMV 112330Z AUTO 17004KT 140V230 9999 FEW068 SCT110 06/04 Q1002

Decode

TAF

TAF AMD LFMV 112000Z 1120/1215 CNL

Decode

Destination Runways

ID Width Length Bearing (true) Bearing (mag) Surface Threshold Offset Overrun Length
16 98 ft / 30 m 1,552 ft / 473 m 169.55° 168.08° Grass 0 ft / 0 m 0 ft / 0 m
17 148 ft / 45 m 6,173 ft / 1,882 m 169.00° 167.53° Asphalt 614 ft / 187 m 0 ft / 0 m
17R 164 ft / 50 m 2,299 ft / 701 m 169.00° 167.53° Grass 0 ft / 0 m 0 ft / 0 m
34 98 ft / 30 m 1,552 ft / 473 m 349.55° 348.08° Grass 0 ft / 0 m 0 ft / 0 m
35 148 ft / 45 m 6,173 ft / 1,882 m 349.00° 347.53° Asphalt 1,017 ft / 310 m 0 ft / 0 m
35L 164 ft / 50 m 2,299 ft / 701 m 349.00° 347.53° Grass 0 ft / 0 m 0 ft / 0 m

Approach Navaids

Runway Type Ident Frequency Range Bearing (true) Bearing (mag) Slope Elevation
17 Localiser AN 110.50 MHz 27 nm / 50 km 167.00° 165.53° - 124 ft / 38 m (AMSL)
17 Glidescope AN 110.50 MHz 10 nm / 19 km 169.00° 167.53° 3.00° 168 ft / 51 m (AMSL)
17 DME AN 110.50 MHz 27 nm / 50 km - - - 124 ft / 38 m (AMSL)
35 Localiser AN 110.50 MHz 18 nm / 33 km 348.79° 347.32° - 121 ft / 37 m (AMSL)
35 Glidescope AN 110.50 MHz 10 nm / 19 km 349.00° 347.53° 3.00° 121 ft / 37 m (AMSL)